This is the latest recevied weather packets stored in our database for station/object OE-11272. If no packets are shown the sender has not sent any weather packets the latest 10 day(s).
| Time | Temp. | Humidity | Pressure | Rain* | Wind** | Luminosity | Snow |
|---|---|---|---|---|---|---|---|
| 1787919926 | 30° C | 54% | 1010 hPa | 0 mm | - | 606 W/m² | - |
| 1787919098 | 29.44° C | 56% | 1010.1 hPa | 0 mm | - | 637 W/m² | - |
| 1787918725 | 28.89° C | 54% | 1010.4 hPa | 0 mm | - | 506 W/m² | - |
| 1787918125 | 28.89° C | 54% | 1010.5 hPa | 0 mm | - | 518 W/m² | - |
| 1787917298 | 28.89° C | 57% | 1010.6 hPa | 0 mm | - | 631 W/m² | - |
| 1787916926 | 28.89° C | 54% | 1010.8 hPa | 0 mm | - | 668 W/m² | - |
| 1787916326 | 28.33° C | 54% | 1011.1 hPa | 0 mm | - | 625 W/m² | - |
| 1787915498 | 28.33° C | 53% | 1011.2 hPa | 0 mm | - | 712 W/m² | - |
| 1787915126 | 27.78° C | 53% | 1011.6 hPa | 0 mm | - | 731 W/m² | - |
| 1787914526 | 27.78° C | 55% | 1011.7 hPa | 0 mm | - | 737 W/m² | - |
| 1787913699 | 27.22° C | 56% | 1012.2 hPa | 0 mm | - | 743 W/m² | - |
| 1787913326 | 27.22° C | 56% | 1012.1 hPa | 0 mm | - | 737 W/m² | - |
| 1787912726 | 26.67° C | 59% | 1012.3 hPa | 0 mm | - | 725 W/m² | - |
| 1787911899 | 25.56° C | 60% | 1012.6 hPa | 0 mm | - | 718 W/m² | - |
| 1787911526 | 25.56° C | 62% | 1013 hPa | 0 mm | - | 706 W/m² | - |
| 1787910925 | 25.56° C | 62% | 1012.9 hPa | 0 mm | - | 700 W/m² | - |
| 1787910099 | 25° C | 67% | 1013.1 hPa | 0 mm | - | 687 W/m² | - |
| 1787909725 | 24.44° C | 68% | 1013.6 hPa | 0 mm | - | 675 W/m² | - |
| 1787909126 | 23.89° C | 72% | 1014 hPa | 0 mm | - | 600 W/m² | - |
| 1787908298 | 23.89° C | 70% | 1014.1 hPa | 0 mm | - | 506 W/m² | - |
| 1787907926 | 23.33° C | 69% | 1014.5 hPa | 0 mm | - | 418 W/m² | - |
| 1787907326 | 23.33° C | 70% | 1015 hPa | 0 mm | - | 375 W/m² | - |
| 1787906498 | 23.33° C | 72% | 1015.1 hPa | 0 mm | - | 350 W/m² | - |
| 1787906123 | 23.33° C | 75% | 1014.9 hPa | 0 mm | - | 468 W/m² | - |
| 1787904699 | 21.67° C | 81% | 1015.4 hPa | 0 mm | - | 375 W/m² | - |
* Rain latest hour (hover to see other rain measurements)
** Current wind speed in m/s (hover to see current wind gust speed)